sensor_id;sensor_type;location;lat;lon;timestamp;P1;durP1;ratioP1;P2;durP2;ratioP2
12286;SDS011;6206;53.100;11.098;2022-10-17T00:02:21;4.03;;;3.22;;
12286;SDS011;6206;53.100;11.098;2022-10-17T00:04:48;5.43;;;3.70;;
12286;SDS011;6206;53.100;11.098;2022-10-17T00:07:15;6.32;;;3.25;;
12286;SDS011;6206;53.100;11.098;2022-10-17T00:09:42;7.53;;;3.00;;
12286;SDS011;6206;53.100;11.098;2022-10-17T00:12:08;2.65;;;2.45;;
12286;SDS011;6206;53.100;11.098;2022-10-17T00:14:37;3.47;;;2.50;;
12286;SDS011;6206;53.100;11.098;2022-10-17T00:17:04;3.83;;;2.30;;
12286;SDS011;6206;53.100;11.098;2022-10-17T00:19:31;3.65;;;2.15;;
12286;SDS011;6206;53.100;11.098;2022-10-17T00:21:58;3.47;;;2.15;;
12286;SDS011;6206;53.100;11.098;2022-10-17T00:24:24;2.83;;;2.05;;
12286;SDS011;6206;53.100;11.098;2022-10-17T00:26:51;4.90;;;2.40;;
12286;SDS011;6206;53.100;11.098;2022-10-17T00:29:18;2.65;;;2.10;;
12286;SDS011;6206;53.100;11.098;2022-10-17T00:31:46;3.00;;;2.10;;
12286;SDS011;6206;53.100;11.098;2022-10-17T00:34:12;2.47;;;2.28;;
12286;SDS011;6206;53.100;11.098;2022-10-17T00:36:39;2.58;;;2.00;;
12286;SDS011;6206;53.100;11.098;2022-10-17T00:39:06;3.85;;;2.08;;
12286;SDS011;6206;53.100;11.098;2022-10-17T00:41:34;2.33;;;2.00;;
12286;SDS011;6206;53.100;11.098;2022-10-17T00:44:01;3.30;;;2.05;;
12286;SDS011;6206;53.100;11.098;2022-10-17T00:46:30;2.92;;;2.22;;
12286;SDS011;6206;53.100;11.098;2022-10-17T00:49:01;2.25;;;2.00;;
12286;SDS011;6206;53.100;11.098;2022-10-17T00:51:33;2.58;;;2.08;;
12286;SDS011;6206;53.100;11.098;2022-10-17T00:54:05;2.15;;;1.80;;
12286;SDS011;6206;53.100;11.098;2022-10-17T00:56:34;3.42;;;2.03;;
12286;SDS011;6206;53.100;11.098;2022-10-17T00:59:02;3.20;;;1.90;;
12286;SDS011;6206;53.100;11.098;2022-10-17T01:01:29;3.35;;;2.20;;
12286;SDS011;6206;53.100;11.098;2022-10-17T01:03:56;2.95;;;2.30;;
12286;SDS011;6206;53.100;11.098;2022-10-17T01:06:24;4.75;;;2.08;;
12286;SDS011;6206;53.100;11.098;2022-10-17T01:08:51;4.85;;;2.05;;
12286;SDS011;6206;53.100;11.098;2022-10-17T01:11:20;2.72;;;1.83;;
12286;SDS011;6206;53.100;11.098;2022-10-17T01:13:59;2.50;;;2.30;;
12286;SDS011;6206;53.100;11.098;2022-10-17T01:16:34;4.25;;;2.13;;
12286;SDS011;6206;53.100;11.098;2022-10-17T01:19:15;3.75;;;2.00;;
12286;SDS011;6206;53.100;11.098;2022-10-17T01:22:00;3.15;;;2.30;;
12286;SDS011;6206;53.100;11.098;2022-10-17T01:24:40;5.38;;;2.13;;
12286;SDS011;6206;53.100;11.098;2022-10-17T01:27:21;4.60;;;2.05;;
12286;SDS011;6206;53.100;11.098;2022-10-17T01:33:21;2.70;;;2.22;;
12286;SDS011;6206;53.100;11.098;2022-10-17T01:35:56;3.20;;;2.30;;
12286;SDS011;6206;53.100;11.098;2022-10-17T01:38:28;4.03;;;2.40;;
12286;SDS011;6206;53.100;11.098;2022-10-17T01:40:59;2.95;;;2.30;;
12286;SDS011;6206;53.100;11.098;2022-10-17T01:43:31;5.35;;;2.50;;
12286;SDS011;6206;53.100;11.098;2022-10-17T01:46:03;2.92;;;2.30;;
12286;SDS011;6206;53.100;11.098;2022-10-17T01:48:38;5.50;;;2.53;;
12286;SDS011;6206;53.100;11.098;2022-10-17T01:51:08;4.40;;;2.30;;
12286;SDS011;6206;53.100;11.098;2022-10-17T01:53:40;3.88;;;2.78;;
12286;SDS011;6206;53.100;11.098;2022-10-17T01:56:12;5.07;;;2.72;;
12286;SDS011;6206;53.100;11.098;2022-10-17T01:58:42;3.30;;;2.70;;
12286;SDS011;6206;53.100;11.098;2022-10-17T02:01:12;3.67;;;2.50;;
12286;SDS011;6206;53.100;11.098;2022-10-17T02:03:41;2.88;;;2.25;;
12286;SDS011;6206;53.100;11.098;2022-10-17T02:06:10;5.13;;;2.40;;
12286;SDS011;6206;53.100;11.098;2022-10-17T02:08:41;3.45;;;2.50;;
12286;SDS011;6206;53.100;11.098;2022-10-17T02:11:10;5.05;;;2.17;;
12286;SDS011;6206;53.100;11.098;2022-10-17T02:13:43;2.70;;;2.17;;
12286;SDS011;6206;53.100;11.098;2022-10-17T02:16:24;4.70;;;2.42;;
12286;SDS011;6206;53.100;11.098;2022-10-17T02:19:08;2.88;;;2.30;;
12286;SDS011;6206;53.100;11.098;2022-10-17T02:21:56;3.72;;;2.10;;
12286;SDS011;6206;53.100;11.098;2022-10-17T02:24:31;2.40;;;2.20;;
12286;SDS011;6206;53.100;11.098;2022-10-17T02:27:04;4.45;;;2.38;;
12286;SDS011;6206;53.100;11.098;2022-10-17T02:29:35;4.80;;;2.30;;
12286;SDS011;6206;53.100;11.098;2022-10-17T02:32:10;2.63;;;2.08;;
12286;SDS011;6206;53.100;11.098;2022-10-17T02:34:46;4.25;;;2.10;;
12286;SDS011;6206;53.100;11.098;2022-10-17T02:37:17;1.95;;;1.85;;
12286;SDS011;6206;53.100;11.098;2022-10-17T02:39:46;2.15;;;1.80;;
12286;SDS011;6206;53.100;11.098;2022-10-17T02:42:15;2.70;;;2.08;;
12286;SDS011;6206;53.100;11.098;2022-10-17T02:44:43;2.53;;;2.08;;
12286;SDS011;6206;53.100;11.098;2022-10-17T02:47:12;3.25;;;2.05;;
12286;SDS011;6206;53.100;11.098;2022-10-17T02:49:46;2.55;;;2.00;;
12286;SDS011;6206;53.100;11.098;2022-10-17T02:52:18;2.17;;;1.98;;
12286;SDS011;6206;53.100;11.098;2022-10-17T02:54:50;2.13;;;1.90;;
12286;SDS011;6206;53.100;11.098;2022-10-17T02:57:21;2.28;;;1.80;;
12286;SDS011;6206;53.100;11.098;2022-10-17T02:59:53;2.90;;;1.77;;
12286;SDS011;6206;53.100;11.098;2022-10-17T03:02:23;2.80;;;1.77;;
12286;SDS011;6206;53.100;11.098;2022-10-17T03:04:51;2.47;;;1.90;;
12286;SDS011;6206;53.100;11.098;2022-10-17T03:07:18;5.10;;;1.80;;
12286;SDS011;6206;53.100;11.098;2022-10-17T03:09:45;3.22;;;1.90;;
12286;SDS011;6206;53.100;11.098;2022-10-17T03:12:11;6.45;;;2.05;;
12286;SDS011;6206;53.100;11.098;2022-10-17T03:14:38;2.70;;;2.38;;
12286;SDS011;6206;53.100;11.098;2022-10-17T03:17:05;5.10;;;1.98;;
12286;SDS011;6206;53.100;11.098;2022-10-17T03:19:32;4.15;;;2.50;;
12286;SDS011;6206;53.100;11.098;2022-10-17T03:22:00;3.08;;;2.10;;
12286;SDS011;6206;53.100;11.098;2022-10-17T03:24:26;3.83;;;2.20;;
12286;SDS011;6206;53.100;11.098;2022-10-17T03:26:53;5.72;;;3.45;;
12286;SDS011;6206;53.100;11.098;2022-10-17T03:29:20;3.08;;;2.60;;
12286;SDS011;6206;53.100;11.098;2022-10-17T03:31:47;2.40;;;2.08;;
12286;SDS011;6206;53.100;11.098;2022-10-17T03:34:13;5.55;;;2.10;;
12286;SDS011;6206;53.100;11.098;2022-10-17T03:36:42;2.08;;;1.88;;
12286;SDS011;6206;53.100;11.098;2022-10-17T03:39:11;3.47;;;2.20;;
12286;SDS011;6206;53.100;11.098;2022-10-17T03:41:38;4.32;;;1.67;;
12286;SDS011;6206;53.100;11.098;2022-10-17T03:44:04;3.28;;;1.88;;
12286;SDS011;6206;53.100;11.098;2022-10-17T03:46:31;2.30;;;2.10;;
12286;SDS011;6206;53.100;11.098;2022-10-17T03:48:58;6.45;;;2.10;;
12286;SDS011;6206;53.100;11.098;2022-10-17T03:51:25;3.92;;;1.80;;
12286;SDS011;6206;53.100;11.098;2022-10-17T03:53:52;4.32;;;2.10;;
12286;SDS011;6206;53.100;11.098;2022-10-17T03:56:21;2.25;;;1.73;;
12286;SDS011;6206;53.100;11.098;2022-10-17T03:58:48;3.13;;;2.05;;
12286;SDS011;6206;53.100;11.098;2022-10-17T04:01:16;4.00;;;1.90;;
12286;SDS011;6206;53.100;11.098;2022-10-17T04:03:47;2.92;;;1.85;;
12286;SDS011;6206;53.100;11.098;2022-10-17T04:06:14;2.72;;;2.00;;
12286;SDS011;6206;53.100;11.098;2022-10-17T04:08:41;5.85;;;2.20;;
12286;SDS011;6206;53.100;11.098;2022-10-17T04:11:09;3.17;;;2.25;;
12286;SDS011;6206;53.100;11.098;2022-10-17T04:13:40;2.17;;;1.70;;
12286;SDS011;6206;53.100;11.098;2022-10-17T04:16:09;3.67;;;1.92;;
12286;SDS011;6206;53.100;11.098;2022-10-17T04:18:38;3.05;;;2.35;;
12286;SDS011;6206;53.100;11.098;2022-10-17T04:21:05;3.10;;;2.10;;
12286;SDS011;6206;53.100;11.098;2022-10-17T04:23:32;4.07;;;1.98;;
12286;SDS011;6206;53.100;11.098;2022-10-17T04:25:59;2.53;;;1.98;;
12286;SDS011;6206;53.100;11.098;2022-10-17T04:28:28;3.40;;;2.10;;
12286;SDS011;6206;53.100;11.098;2022-10-17T04:30:57;5.70;;;2.10;;
12286;SDS011;6206;53.100;11.098;2022-10-17T04:33:24;2.13;;;1.90;;
12286;SDS011;6206;53.100;11.098;2022-10-17T04:35:55;2.42;;;2.10;;
12286;SDS011;6206;53.100;11.098;2022-10-17T04:38:22;4.07;;;2.30;;
12286;SDS011;6206;53.100;11.098;2022-10-17T04:40:49;2.47;;;2.20;;
12286;SDS011;6206;53.100;11.098;2022-10-17T04:43:15;2.63;;;2.20;;
12286;SDS011;6206;53.100;11.098;2022-10-17T04:45:42;3.28;;;2.03;;
12286;SDS011;6206;53.100;11.098;2022-10-17T04:48:11;3.55;;;2.30;;
12286;SDS011;6206;53.100;11.098;2022-10-17T04:50:37;4.38;;;2.20;;
12286;SDS011;6206;53.100;11.098;2022-10-17T04:53:04;3.10;;;2.20;;
12286;SDS011;6206;53.100;11.098;2022-10-17T04:55:35;5.97;;;2.90;;
12286;SDS011;6206;53.100;11.098;2022-10-17T04:58:02;6.82;;;2.17;;
12286;SDS011;6206;53.100;11.098;2022-10-17T05:00:29;4.35;;;2.20;;
12286;SDS011;6206;53.100;11.098;2022-10-17T05:02:56;3.90;;;2.00;;
12286;SDS011;6206;53.100;11.098;2022-10-17T05:05:24;3.60;;;2.22;;
12286;SDS011;6206;53.100;11.098;2022-10-17T05:07:51;2.95;;;2.15;;
12286;SDS011;6206;53.100;11.098;2022-10-17T05:10:17;3.33;;;2.08;;
12286;SDS011;6206;53.100;11.098;2022-10-17T05:12:45;4.10;;;2.20;;
12286;SDS011;6206;53.100;11.098;2022-10-17T05:15:12;5.60;;;2.25;;
12286;SDS011;6206;53.100;11.098;2022-10-17T05:17:39;3.85;;;2.15;;
12286;SDS011;6206;53.100;11.098;2022-10-17T05:20:06;3.08;;;2.20;;
12286;SDS011;6206;53.100;11.098;2022-10-17T05:22:35;3.20;;;2.67;;
12286;SDS011;6206;53.100;11.098;2022-10-17T05:25:02;3.95;;;2.33;;
12286;SDS011;6206;53.100;11.098;2022-10-17T05:27:29;3.75;;;2.40;;
12286;SDS011;6206;53.100;11.098;2022-10-17T05:29:56;5.55;;;2.67;;
12286;SDS011;6206;53.100;11.098;2022-10-17T05:32:23;2.65;;;2.38;;
12286;SDS011;6206;53.100;11.098;2022-10-17T05:34:50;5.68;;;2.50;;
12286;SDS011;6206;53.100;11.098;2022-10-17T05:37:16;5.47;;;2.78;;
12286;SDS011;6206;53.100;11.098;2022-10-17T05:39:44;4.78;;;2.65;;
12286;SDS011;6206;53.100;11.098;2022-10-17T05:42:11;4.57;;;2.78;;
12286;SDS011;6206;53.100;11.098;2022-10-17T05:44:38;4.57;;;2.65;;
12286;SDS011;6206;53.100;11.098;2022-10-17T05:47:05;4.72;;;2.55;;
12286;SDS011;6206;53.100;11.098;2022-10-17T05:49:32;2.85;;;2.55;;
12286;SDS011;6206;53.100;11.098;2022-10-17T05:51:59;4.47;;;2.35;;
12286;SDS011;6206;53.100;11.098;2022-10-17T05:54:26;2.85;;;2.47;;
12286;SDS011;6206;53.100;11.098;2022-10-17T05:56:55;3.65;;;2.38;;
12286;SDS011;6206;53.100;11.098;2022-10-17T05:59:23;4.30;;;3.00;;
12286;SDS011;6206;53.100;11.098;2022-10-17T06:01:51;2.85;;;2.47;;
12286;SDS011;6206;53.100;11.098;2022-10-17T06:04:18;2.92;;;2.40;;
12286;SDS011;6206;53.100;11.098;2022-10-17T06:06:45;2.95;;;2.13;;
12286;SDS011;6206;53.100;11.098;2022-10-17T06:09:12;4.40;;;2.28;;
12286;SDS011;6206;53.100;11.098;2022-10-17T06:11:39;3.65;;;2.20;;
12286;SDS011;6206;53.100;11.098;2022-10-17T06:14:07;6.78;;;2.97;;
12286;SDS011;6206;53.100;11.098;2022-10-17T06:16:34;2.95;;;2.40;;
12286;SDS011;6206;53.100;11.098;2022-10-17T06:19:00;2.90;;;2.38;;
12286;SDS011;6206;53.100;11.098;2022-10-17T06:21:27;3.20;;;2.50;;
12286;SDS011;6206;53.100;11.098;2022-10-17T06:23:54;2.80;;;2.10;;
12286;SDS011;6206;53.100;11.098;2022-10-17T06:26:21;2.53;;;2.30;;
12286;SDS011;6206;53.100;11.098;2022-10-17T06:28:47;3.85;;;2.45;;
12286;SDS011;6206;53.100;11.098;2022-10-17T06:31:16;4.30;;;2.55;;
12286;SDS011;6206;53.100;11.098;2022-10-17T06:33:42;3.40;;;2.50;;
12286;SDS011;6206;53.100;11.098;2022-10-17T06:36:10;3.58;;;2.30;;
12286;SDS011;6206;53.100;11.098;2022-10-17T06:38:38;3.33;;;2.70;;
12286;SDS011;6206;53.100;11.098;2022-10-17T06:41:06;2.80;;;2.50;;
12286;SDS011;6206;53.100;11.098;2022-10-17T06:43:35;2.50;;;2.30;;
12286;SDS011;6206;53.100;11.098;2022-10-17T06:46:01;4.60;;;2.40;;
12286;SDS011;6206;53.100;11.098;2022-10-17T06:48:30;3.20;;;2.28;;
12286;SDS011;6206;53.100;11.098;2022-10-17T06:50:57;3.55;;;2.45;;
12286;SDS011;6206;53.100;11.098;2022-10-17T06:53:25;4.95;;;3.28;;
12286;SDS011;6206;53.100;11.098;2022-10-17T06:55:53;4.28;;;2.40;;
12286;SDS011;6206;53.100;11.098;2022-10-17T06:58:22;4.57;;;3.13;;
12286;SDS011;6206;53.100;11.098;2022-10-17T07:00:49;3.50;;;2.78;;
12286;SDS011;6206;53.100;11.098;2022-10-17T07:03:15;3.25;;;2.45;;
12286;SDS011;6206;53.100;11.098;2022-10-17T07:05:43;2.85;;;2.40;;
12286;SDS011;6206;53.100;11.098;2022-10-17T07:08:16;3.25;;;2.60;;
12286;SDS011;6206;53.100;11.098;2022-10-17T07:10:43;3.05;;;2.45;;
12286;SDS011;6206;53.100;11.098;2022-10-17T07:13:10;3.65;;;2.80;;
12286;SDS011;6206;53.100;11.098;2022-10-17T07:15:37;3.08;;;2.72;;
12286;SDS011;6206;53.100;11.098;2022-10-17T07:18:04;2.83;;;2.53;;
12286;SDS011;6206;53.100;11.098;2022-10-17T07:20:32;5.47;;;2.80;;
12286;SDS011;6206;53.100;11.098;2022-10-17T07:23:00;3.63;;;2.70;;
12286;SDS011;6206;53.100;11.098;2022-10-17T07:25:27;3.70;;;2.88;;
12286;SDS011;6206;53.100;11.098;2022-10-17T07:27:54;5.05;;;2.90;;
12286;SDS011;6206;53.100;11.098;2022-10-17T07:30:21;3.13;;;2.83;;
12286;SDS011;6206;53.100;11.098;2022-10-17T07:32:48;3.85;;;3.42;;
12286;SDS011;6206;53.100;11.098;2022-10-17T07:35:18;5.40;;;3.25;;
12286;SDS011;6206;53.100;11.098;2022-10-17T07:37:45;3.53;;;3.22;;
12286;SDS011;6206;53.100;11.098;2022-10-17T07:40:13;4.70;;;3.30;;
12286;SDS011;6206;53.100;11.098;2022-10-17T07:42:40;3.67;;;3.13;;
12286;SDS011;6206;53.100;11.098;2022-10-17T07:45:07;4.40;;;3.13;;
12286;SDS011;6206;53.100;11.098;2022-10-17T07:47:34;3.50;;;3.20;;
12286;SDS011;6206;53.100;11.098;2022-10-17T07:50:01;7.80;;;3.45;;
12286;SDS011;6206;53.100;11.098;2022-10-17T07:52:28;3.47;;;3.15;;
12286;SDS011;6206;53.100;11.098;2022-10-17T07:54:55;5.03;;;3.10;;
12286;SDS011;6206;53.100;11.098;2022-10-17T07:57:23;4.10;;;3.58;;
12286;SDS011;6206;53.100;11.098;2022-10-17T07:59:50;5.32;;;3.13;;
12286;SDS011;6206;53.100;11.098;2022-10-17T08:02:19;7.47;;;3.40;;
12286;SDS011;6206;53.100;11.098;2022-10-17T08:04:47;5.63;;;3.17;;
12286;SDS011;6206;53.100;11.098;2022-10-17T08:07:14;3.63;;;3.22;;
12286;SDS011;6206;53.100;11.098;2022-10-17T08:09:41;3.92;;;3.17;;
12286;SDS011;6206;53.100;11.098;2022-10-17T08:12:08;4.80;;;3.63;;
12286;SDS011;6206;53.100;11.098;2022-10-17T08:14:36;6.63;;;3.63;;
12286;SDS011;6206;53.100;11.098;2022-10-17T08:17:03;5.28;;;3.80;;
12286;SDS011;6206;53.100;11.098;2022-10-17T08:19:30;5.38;;;3.50;;
12286;SDS011;6206;53.100;11.098;2022-10-17T08:21:57;5.13;;;3.70;;
12286;SDS011;6206;53.100;11.098;2022-10-17T08:24:25;6.40;;;3.35;;
12286;SDS011;6206;53.100;11.098;2022-10-17T08:26:51;4.93;;;3.40;;
12286;SDS011;6206;53.100;11.098;2022-10-17T08:29:18;4.13;;;3.60;;
12286;SDS011;6206;53.100;11.098;2022-10-17T08:31:46;5.70;;;3.47;;
12286;SDS011;6206;53.100;11.098;2022-10-17T08:34:13;4.70;;;3.25;;
12286;SDS011;6206;53.100;11.098;2022-10-17T08:36:40;4.68;;;3.40;;
12286;SDS011;6206;53.100;11.098;2022-10-17T08:39:07;5.43;;;3.40;;
12286;SDS011;6206;53.100;11.098;2022-10-17T08:41:37;5.53;;;3.10;;
12286;SDS011;6206;53.100;11.098;2022-10-17T08:44:14;4.78;;;2.90;;
12286;SDS011;6206;53.100;11.098;2022-10-17T08:46:52;5.57;;;3.10;;
12286;SDS011;6206;53.100;11.098;2022-10-17T08:49:24;5.53;;;2.70;;
12286;SDS011;6206;53.100;11.098;2022-10-17T08:51:58;3.83;;;2.60;;
12286;SDS011;6206;53.100;11.098;2022-10-17T08:54:33;4.13;;;2.85;;
12286;SDS011;6206;53.100;11.098;2022-10-17T08:57:08;4.13;;;2.90;;
12286;SDS011;6206;53.100;11.098;2022-10-17T08:59:38;7.45;;;2.65;;
12286;SDS011;6206;53.100;11.098;2022-10-17T09:02:14;3.00;;;2.70;;
12286;SDS011;6206;53.100;11.098;2022-10-17T09:04:55;4.55;;;2.90;;
12286;SDS011;6206;53.100;11.098;2022-10-17T09:07:34;3.92;;;2.90;;
12286;SDS011;6206;53.100;11.098;2022-10-17T09:10:08;2.95;;;2.60;;
12286;SDS011;6206;53.100;11.098;2022-10-17T09:12:42;3.67;;;2.70;;
12286;SDS011;6206;53.100;11.098;2022-10-17T09:15:23;5.18;;;3.22;;
12286;SDS011;6206;53.100;11.098;2022-10-17T09:18:07;3.78;;;2.80;;
12286;SDS011;6206;53.100;11.098;2022-10-17T09:20:37;4.72;;;3.30;;
12286;SDS011;6206;53.100;11.098;2022-10-17T09:23:09;4.22;;;2.78;;
12286;SDS011;6206;53.100;11.098;2022-10-17T09:25:40;5.22;;;3.00;;
12286;SDS011;6206;53.100;11.098;2022-10-17T09:28:11;6.03;;;3.38;;
12286;SDS011;6206;53.100;11.098;2022-10-17T09:30:42;4.55;;;2.80;;
12286;SDS011;6206;53.100;11.098;2022-10-17T09:33:13;5.95;;;3.00;;
12286;SDS011;6206;53.100;11.098;2022-10-17T09:35:41;5.60;;;2.90;;
12286;SDS011;6206;53.100;11.098;2022-10-17T09:38:12;5.18;;;3.08;;
12286;SDS011;6206;53.100;11.098;2022-10-17T09:40:41;4.13;;;2.88;;
12286;SDS011;6206;53.100;11.098;2022-10-17T09:43:10;4.43;;;2.88;;
12286;SDS011;6206;53.100;11.098;2022-10-17T09:45:39;4.40;;;2.85;;
12286;SDS011;6206;53.100;11.098;2022-10-17T09:48:17;4.13;;;2.65;;
12286;SDS011;6206;53.100;11.098;2022-10-17T09:50:49;5.35;;;3.22;;
12286;SDS011;6206;53.100;11.098;2022-10-17T09:53:17;6.90;;;2.90;;
12286;SDS011;6206;53.100;11.098;2022-10-17T09:55:48;3.65;;;2.72;;
12286;SDS011;6206;53.100;11.098;2022-10-17T09:58:19;4.13;;;2.80;;
12286;SDS011;6206;53.100;11.098;2022-10-17T10:00:47;3.65;;;2.65;;
12286;SDS011;6206;53.100;11.098;2022-10-17T10:03:17;3.28;;;2.60;;
12286;SDS011;6206;53.100;11.098;2022-10-17T10:05:59;3.13;;;2.72;;
12286;SDS011;6206;53.100;11.098;2022-10-17T10:08:29;4.57;;;3.25;;
12286;SDS011;6206;53.100;11.098;2022-10-17T10:10:59;4.07;;;2.85;;
12286;SDS011;6206;53.100;11.098;2022-10-17T10:13:29;4.90;;;2.75;;
12286;SDS011;6206;53.100;11.098;2022-10-17T10:16:14;4.55;;;2.70;;
12286;SDS011;6206;53.100;11.098;2022-10-17T10:18:45;5.23;;;2.77;;
12286;SDS011;6206;53.100;11.098;2022-10-17T10:21:13;8.05;;;3.05;;
12286;SDS011;6206;53.100;11.098;2022-10-17T10:23:41;4.60;;;3.10;;
12286;SDS011;6206;53.100;11.098;2022-10-17T10:26:22;4.60;;;2.50;;
12286;SDS011;6206;53.100;11.098;2022-10-17T10:28:55;4.50;;;2.50;;
12286;SDS011;6206;53.100;11.098;2022-10-17T10:31:25;4.60;;;2.53;;
12286;SDS011;6206;53.100;11.098;2022-10-17T10:33:55;3.50;;;2.60;;
12286;SDS011;6206;53.100;11.098;2022-10-17T10:36:24;2.83;;;2.37;;
12286;SDS011;6206;53.100;11.098;2022-10-17T10:38:51;4.40;;;2.60;;
12286;SDS011;6206;53.100;11.098;2022-10-17T10:41:21;3.63;;;2.58;;
12286;SDS011;6206;53.100;11.098;2022-10-17T10:43:51;3.67;;;2.15;;
12286;SDS011;6206;53.100;11.098;2022-10-17T10:46:20;4.78;;;1.98;;
12286;SDS011;6206;53.100;11.098;2022-10-17T10:48:49;4.40;;;2.20;;
12286;SDS011;6206;53.100;11.098;2022-10-17T10:51:20;4.53;;;2.22;;
12286;SDS011;6206;53.100;11.098;2022-10-17T10:53:52;4.80;;;2.00;;
12286;SDS011;6206;53.100;11.098;2022-10-17T10:56:23;2.42;;;1.75;;
12286;SDS011;6206;53.100;11.098;2022-10-17T10:58:55;4.82;;;2.38;;
12286;SDS011;6206;53.100;11.098;2022-10-17T11:01:30;2.25;;;1.95;;
12286;SDS011;6206;53.100;11.098;2022-10-17T11:04:06;2.33;;;2.10;;
12286;SDS011;6206;53.100;11.098;2022-10-17T11:06:43;4.65;;;2.20;;
12286;SDS011;6206;53.100;11.098;2022-10-17T11:09:17;7.07;;;2.70;;
12286;SDS011;6206;53.100;11.098;2022-10-17T11:11:57;4.97;;;2.05;;
12286;SDS011;6206;53.100;11.098;2022-10-17T11:14:31;2.70;;;1.90;;
12286;SDS011;6206;53.100;11.098;2022-10-17T11:17:05;2.15;;;1.83;;
12286;SDS011;6206;53.100;11.098;2022-10-17T11:19:38;6.88;;;2.40;;
12286;SDS011;6206;53.100;11.098;2022-10-17T11:22:15;2.88;;;2.13;;
12286;SDS011;6206;53.100;11.098;2022-10-17T11:24:50;4.45;;;2.28;;
12286;SDS011;6206;53.100;11.098;2022-10-17T11:27:23;4.25;;;2.20;;
12286;SDS011;6206;53.100;11.098;2022-10-17T11:29:51;4.22;;;2.33;;
12286;SDS011;6206;53.100;11.098;2022-10-17T11:32:18;3.40;;;2.25;;
12286;SDS011;6206;53.100;11.098;2022-10-17T11:34:50;2.63;;;2.10;;
12286;SDS011;6206;53.100;11.098;2022-10-17T11:37:22;3.03;;;2.25;;
12286;SDS011;6206;53.100;11.098;2022-10-17T11:39:54;3.08;;;2.00;;
12286;SDS011;6206;53.100;11.098;2022-10-17T11:42:24;4.22;;;2.35;;
12286;SDS011;6206;53.100;11.098;2022-10-17T11:44:57;2.65;;;2.05;;
12286;SDS011;6206;53.100;11.098;2022-10-17T11:47:31;2.78;;;2.20;;
12286;SDS011;6206;53.100;11.098;2022-10-17T11:50:05;6.15;;;2.10;;
12286;SDS011;6206;53.100;11.098;2022-10-17T11:52:40;3.20;;;2.63;;
12286;SDS011;6206;53.100;11.098;2022-10-17T11:55:10;4.68;;;2.30;;
12286;SDS011;6206;53.100;11.098;2022-10-17T11:57:44;2.85;;;1.95;;
12286;SDS011;6206;53.100;11.098;2022-10-17T12:00:20;4.15;;;2.08;;
12286;SDS011;6206;53.100;11.098;2022-10-17T12:02:53;4.57;;;2.10;;
12286;SDS011;6206;53.100;11.098;2022-10-17T12:05:31;2.75;;;2.13;;
12286;SDS011;6206;53.100;11.098;2022-10-17T12:08:08;2.75;;;2.20;;
12286;SDS011;6206;53.100;11.098;2022-10-17T12:10:43;3.90;;;2.17;;
12286;SDS011;6206;53.100;11.098;2022-10-17T12:16:35;5.10;;;2.25;;
12286;SDS011;6206;53.100;11.098;2022-10-17T12:24:53;4.45;;;2.72;;
12286;SDS011;6206;53.100;11.098;2022-10-17T12:27:33;2.53;;;2.20;;
12286;SDS011;6206;53.100;11.098;2022-10-17T12:30:14;2.60;;;2.15;;
12286;SDS011;6206;53.100;11.098;2022-10-17T12:32:52;4.43;;;2.20;;
12286;SDS011;6206;53.100;11.098;2022-10-17T12:35:22;6.37;;;2.60;;
12286;SDS011;6206;53.100;11.098;2022-10-17T12:40:58;4.18;;;2.42;;
12286;SDS011;6206;53.100;11.098;2022-10-17T12:43:36;5.38;;;2.28;;
12286;SDS011;6206;53.100;11.098;2022-10-17T12:46:43;4.18;;;2.60;;
12286;SDS011;6206;53.100;11.098;2022-10-17T12:49:19;6.63;;;2.28;;
12286;SDS011;6206;53.100;11.098;2022-10-17T12:52:03;4.80;;;1.95;;
12286;SDS011;6206;53.100;11.098;2022-10-17T12:54:40;4.00;;;2.35;;
12286;SDS011;6206;53.100;11.098;2022-10-17T12:57:14;4.20;;;2.50;;
12286;SDS011;6206;53.100;11.098;2022-10-17T12:59:45;3.60;;;2.20;;
12286;SDS011;6206;53.100;11.098;2022-10-17T13:02:15;2.45;;;2.20;;
12286;SDS011;6206;53.100;11.098;2022-10-17T13:04:45;5.32;;;2.20;;
12286;SDS011;6206;53.100;11.098;2022-10-17T13:07:15;3.70;;;2.30;;
12286;SDS011;6206;53.100;11.098;2022-10-17T13:09:45;5.72;;;2.50;;
12286;SDS011;6206;53.100;11.098;2022-10-17T13:12:17;2.88;;;2.20;;
12286;SDS011;6206;53.100;11.098;2022-10-17T13:14:49;3.13;;;2.45;;
12286;SDS011;6206;53.100;11.098;2022-10-17T13:17:22;4.43;;;2.50;;
12286;SDS011;6206;53.100;11.098;2022-10-17T13:19:51;6.47;;;2.30;;
12286;SDS011;6206;53.100;11.098;2022-10-17T13:22:20;5.53;;;2.33;;
12286;SDS011;6206;53.100;11.098;2022-10-17T13:24:48;3.95;;;2.42;;
12286;SDS011;6206;53.100;11.098;2022-10-17T13:27:25;2.65;;;2.08;;
12286;SDS011;6206;53.100;11.098;2022-10-17T13:29:54;3.85;;;2.20;;
12286;SDS011;6206;53.100;11.098;2022-10-17T13:32:22;3.25;;;2.33;;
12286;SDS011;6206;53.100;11.098;2022-10-17T13:35:03;4.03;;;2.30;;
12286;SDS011;6206;53.100;11.098;2022-10-17T13:37:32;3.03;;;1.90;;
12286;SDS011;6206;53.100;11.098;2022-10-17T13:40:00;2.55;;;1.95;;
12286;SDS011;6206;53.100;11.098;2022-10-17T13:42:30;4.03;;;1.98;;
12286;SDS011;6206;53.100;11.098;2022-10-17T13:45:03;5.65;;;2.15;;
12286;SDS011;6206;53.100;11.098;2022-10-17T13:47:41;3.42;;;1.98;;
12286;SDS011;6206;53.100;11.098;2022-10-17T13:50:12;4.10;;;2.72;;
12286;SDS011;6206;53.100;11.098;2022-10-17T13:52:45;5.63;;;2.28;;
12286;SDS011;6206;53.100;11.098;2022-10-17T13:55:13;7.72;;;2.25;;
12286;SDS011;6206;53.100;11.098;2022-10-17T13:57:45;5.35;;;2.20;;
12286;SDS011;6206;53.100;11.098;2022-10-17T14:00:15;6.93;;;2.22;;
12286;SDS011;6206;53.100;11.098;2022-10-17T14:02:45;5.35;;;2.03;;
12286;SDS011;6206;53.100;11.098;2022-10-17T14:05:13;4.05;;;2.70;;
12286;SDS011;6206;53.100;11.098;2022-10-17T14:07:43;5.65;;;2.00;;
12286;SDS011;6206;53.100;11.098;2022-10-17T14:10:18;3.38;;;1.92;;
12286;SDS011;6206;53.100;11.098;2022-10-17T14:12:48;10.88;;;2.47;;
12286;SDS011;6206;53.100;11.098;2022-10-17T14:15:16;5.43;;;2.42;;
12286;SDS011;6206;53.100;11.098;2022-10-17T14:17:43;4.00;;;2.08;;
12286;SDS011;6206;53.100;11.098;2022-10-17T14:20:18;2.72;;;2.20;;
12286;SDS011;6206;53.100;11.098;2022-10-17T14:22:46;3.30;;;2.15;;
12286;SDS011;6206;53.100;11.098;2022-10-17T14:25:26;5.45;;;2.25;;
12286;SDS011;6206;53.100;11.098;2022-10-17T14:27:55;5.00;;;2.40;;
12286;SDS011;6206;53.100;11.098;2022-10-17T14:30:32;5.43;;;2.38;;
12286;SDS011;6206;53.100;11.098;2022-10-17T14:33:01;4.15;;;2.13;;
12286;SDS011;6206;53.100;11.098;2022-10-17T14:35:31;5.13;;;2.50;;
12286;SDS011;6206;53.100;11.098;2022-10-17T14:37:59;5.85;;;2.90;;
12286;SDS011;6206;53.100;11.098;2022-10-17T14:40:28;6.40;;;2.90;;
12286;SDS011;6206;53.100;11.098;2022-10-17T14:42:58;7.50;;;3.50;;
12286;SDS011;6206;53.100;11.098;2022-10-17T14:45:29;5.70;;;3.30;;
12286;SDS011;6206;53.100;11.098;2022-10-17T14:47:59;8.43;;;5.05;;
12286;SDS011;6206;53.100;11.098;2022-10-17T14:50:30;10.60;;;7.38;;
12286;SDS011;6206;53.100;11.098;2022-10-17T14:52:58;17.38;;;8.73;;
12286;SDS011;6206;53.100;11.098;2022-10-17T14:55:27;12.75;;;7.65;;
12286;SDS011;6206;53.100;11.098;2022-10-17T14:57:55;7.63;;;4.60;;
12286;SDS011;6206;53.100;11.098;2022-10-17T15:00:23;6.60;;;3.60;;
12286;SDS011;6206;53.100;11.098;2022-10-17T15:02:52;6.18;;;2.90;;
12286;SDS011;6206;53.100;11.098;2022-10-17T15:05:20;10.57;;;4.53;;
12286;SDS011;6206;53.100;11.098;2022-10-17T15:07:49;5.50;;;2.95;;
12286;SDS011;6206;53.100;11.098;2022-10-17T15:10:23;7.10;;;2.72;;
12286;SDS011;6206;53.100;11.098;2022-10-17T15:12:54;7.55;;;2.70;;
12286;SDS011;6206;53.100;11.098;2022-10-17T15:15:20;4.60;;;2.80;;
12286;SDS011;6206;53.100;11.098;2022-10-17T15:17:49;4.88;;;2.83;;
12286;SDS011;6206;53.100;11.098;2022-10-17T15:20:16;7.38;;;3.15;;
12286;SDS011;6206;53.100;11.098;2022-10-17T15:22:44;10.05;;;3.63;;